Time;durP1;ratioP1;P1;durP2;ratioP2;P2;SDS_P1;SDS_P2;PMS_P1;PMS_P2;Temp;Humidity;BMP_temperature;BMP_pressure;BME280_temperature;BME280_humidity;BME280_pressure;Samples;Min_cycle;Max_cycle;Signal;HPM_P1;HPM_P2
2022/12/25 00:01:47;;;;;;;13.80;4.70;;;10.70;99.90;;;;;;10441465;28;20231;-69
2022/12/25 00:06:47;;;;;;;13.03;4.67;;;10.70;99.90;;;;;;10428078;28;20223;-68
2022/12/25 00:11:51;;;;;;;9.77;4.50;;;10.70;99.90;;;;;;10425689;28;20312;-68
2022/12/25 00:16:51;;;;;;;13.17;4.60;;;10.70;99.90;;;;;;10427583;28;20664;-70
2022/12/25 00:21:52;;;;;;;14.97;4.70;;;10.70;99.90;;;;;;10427024;28;20256;-69
2022/12/25 00:26:53;;;;;;;7.77;4.53;;;10.70;99.90;;;;;;10427944;28;20215;-69
2022/12/25 00:31:53;;;;;;;9.07;4.80;;;10.70;99.90;;;;;;10447497;28;20727;-69
2022/12/25 00:36:54;;;;;;;9.47;4.47;;;10.70;99.90;;;;;;10435949;28;20221;-69
2022/12/25 00:47:15;;;;;;;9.30;3.83;;;10.60;99.90;;;;;;10432746;28;20638;-70
2022/12/25 00:52:53;;;;;;;6.67;3.70;;;10.60;99.90;;;;;;10437456;28;20234;-69
2022/12/25 00:57:53;;;;;;;9.13;4.23;;;10.50;99.90;;;;;;10441805;28;20215;-69
2022/12/25 01:02:54;;;;;;;12.13;3.90;;;10.50;99.90;;;;;;10433788;28;20569;-69
2022/12/25 01:07:54;;;;;;;9.37;4.10;;;10.40;99.90;;;;;;10418620;28;20207;-69
2022/12/25 01:12:55;;;;;;;12.33;4.13;;;10.40;99.90;;;;;;10437827;28;20218;-69
2022/12/25 01:17:55;;;;;;;10.53;4.13;;;10.40;99.90;;;;;;10422224;28;20214;-69
2022/12/25 01:22:56;;;;;;;8.23;4.03;;;10.40;99.90;;;;;;10441634;28;20294;-70
2022/12/25 01:27:56;;;;;;;10.77;4.10;;;10.40;99.90;;;;;;10441191;28;20219;-69
2022/12/25 01:32:57;;;;;;;12.87;3.70;;;10.30;99.90;;;;;;10433040;28;20285;-69
2022/12/25 01:37:58;;;;;;;8.07;3.87;;;10.30;99.90;;;;;;10414914;28;20227;-70
2022/12/25 01:42:58;;;;;;;9.20;3.57;;;10.30;99.90;;;;;;10432259;28;20217;-69
2022/12/25 01:48:05;;;;;;;9.13;3.83;;;10.40;99.90;;;;;;10432412;28;20222;-69
2022/12/25 01:53:06;;;;;;;8.60;3.80;;;10.30;99.90;;;;;;10433536;28;20649;-69
2022/12/25 01:58:08;;;;;;;7.97;3.40;;;10.30;99.90;;;;;;10438326;28;20230;-70
2022/12/25 02:03:08;;;;;;;9.37;3.90;;;10.20;99.90;;;;;;10416197;28;20226;-69
2022/12/25 02:08:14;;;;;;;8.23;3.20;;;10.20;99.90;;;;;;10438440;28;20215;-70
2022/12/25 02:13:18;;;;;;;8.37;3.60;;;10.10;99.90;;;;;;10428943;28;20445;-70
2022/12/25 02:18:50;;;;;;;8.47;3.30;;;10.20;99.90;;;;;;10434507;28;20215;-69
2022/12/25 02:24:17;;;;;;;8.60;3.60;;;10.20;99.90;;;;;;10430013;28;20226;-69
2022/12/25 02:29:55;;;;;;;7.20;3.13;;;10.20;99.90;;;;;;10420269;28;20219;-69
2022/12/25 02:35:06;;;;;;;7.17;2.90;;;10.10;99.90;;;;;;10427174;28;20233;-69
2022/12/25 02:40:20;;;;;;;8.30;3.23;;;9.90;99.90;;;;;;10428141;28;20230;-70
2022/12/25 03:07:22;;;;;;;7.43;2.40;;;9.70;99.90;;;;;;10439512;28;20214;-69
2022/12/25 03:12:34;;;;;;;4.20;2.10;;;9.70;99.90;;;;;;10406841;28;20793;-70
2022/12/25 03:17:35;;;;;;;6.03;2.33;;;9.80;99.90;;;;;;10425924;28;20220;-69
2022/12/25 03:28:00;;;;;;;7.23;2.57;;;9.90;99.90;;;;;;10442608;28;20213;-69
2022/12/25 03:35:21;;;;;;;3.93;2.10;;;9.90;99.90;;;;;;10424381;28;20307;-69
2022/12/25 04:38:21;;;;;;;5.80;2.47;;;10.10;99.90;;;;;;10430853;28;20308;-69
2022/12/25 04:43:23;;;;;;;3.43;2.10;;;10.20;99.90;;;;;;10424655;28;20322;-70
2022/12/25 04:48:26;;;;;;;7.07;2.30;;;10.20;99.90;;;;;;10433469;28;20219;-70
2022/12/25 04:53:26;;;;;;;6.33;1.90;;;10.30;99.90;;;;;;10423311;28;20255;-70
2022/12/25 04:58:27;;;;;;;4.60;1.90;;;10.30;99.90;;;;;;10431112;28;20246;-70
2022/12/25 05:03:28;;;;;;;6.63;2.30;;;10.30;99.90;;;;;;10428527;28;20222;-69
2022/12/25 05:08:31;;;;;;;4.63;2.00;;;10.40;99.90;;;;;;10430954;28;20668;-70
2022/12/25 05:13:31;;;;;;;6.87;2.00;;;10.40;99.90;;;;;;10405782;28;20225;-69
2022/12/25 05:18:32;;;;;;;4.83;2.20;;;10.40;99.90;;;;;;10434695;28;20242;-69
2022/12/25 05:23:33;;;;;;;5.00;1.90;;;10.40;99.90;;;;;;10439670;28;20314;-69
2022/12/25 05:28:34;;;;;;;5.50;2.07;;;10.40;99.90;;;;;;10450961;28;20212;-70
2022/12/25 05:33:34;;;;;;;4.17;1.87;;;10.40;99.90;;;;;;10436484;28;20767;-70
2022/12/25 05:38:36;;;;;;;4.40;2.03;;;10.40;99.90;;;;;;10412685;28;20300;-69
2022/12/25 05:43:36;;;;;;;3.57;2.07;;;10.40;99.90;;;;;;10417921;28;20229;-70
2022/12/25 05:48:37;;;;;;;3.67;1.70;;;10.30;99.90;;;;;;10430243;28;20227;-70
2022/12/25 05:53:39;;;;;;;2.70;1.70;;;10.30;99.90;;;;;;10417276;28;20713;-70
2022/12/25 05:58:40;;;;;;;4.83;1.90;;;10.30;99.90;;;;;;10428821;28;20606;-70
2022/12/25 06:03:41;;;;;;;4.90;2.00;;;10.30;99.90;;;;;;10432445;28;20232;-70
2022/12/25 06:08:42;;;;;;;3.83;2.10;;;10.20;99.90;;;;;;10436350;28;20229;-70
2022/12/25 06:13:42;;;;;;;6.17;3.03;;;10.20;99.90;;;;;;10446619;28;20252;-70
2022/12/25 06:18:48;;;;;;;4.37;2.40;;;10.20;99.90;;;;;;10437736;28;20204;-70
2022/12/25 06:23:49;;;;;;;3.43;2.10;;;10.20;99.90;;;;;;10421211;28;20246;-70
2022/12/25 06:28:49;;;;;;;4.57;2.00;;;10.10;99.90;;;;;;10431987;28;20651;-69
2022/12/25 06:33:50;;;;;;;4.70;2.00;;;10.20;99.90;;;;;;10412380;28;20222;-69
2022/12/25 06:38:52;;;;;;;6.33;2.67;;;10.20;99.90;;;;;;10414157;28;20218;-69
2022/12/25 06:43:55;;;;;;;4.33;2.10;;;10.20;99.90;;;;;;10431404;28;20708;-69
2022/12/25 06:48:57;;;;;;;6.07;2.30;;;10.20;99.90;;;;;;10430880;28;20224;-69
2022/12/25 06:53:58;;;;;;;4.50;2.40;;;10.20;99.90;;;;;;10430503;28;20226;-68
2022/12/25 06:59:02;;;;;;;4.63;2.63;;;10.20;99.90;;;;;;10429915;28;20730;-68
2022/12/25 07:04:31;;;;;;;6.10;2.07;;;10.10;99.90;;;;;;10417720;28;20224;-69
2022/12/25 07:09:32;;;;;;;7.37;2.50;;;10.10;99.90;;;;;;10433844;28;20222;-69
2022/12/25 07:14:33;;;;;;;4.17;2.13;;;10.20;99.90;;;;;;10432739;28;20886;-69
2022/12/25 07:19:34;;;;;;;4.70;1.93;;;10.20;99.90;;;;;;10444262;28;20696;-70
2022/12/25 07:24:34;;;;;;;5.87;2.77;;;10.30;99.90;;;;;;10408193;28;20236;-69
2022/12/25 07:29:35;;;;;;;7.27;2.57;;;10.40;99.90;;;;;;10424533;28;20220;-69
2022/12/25 07:34:35;;;;;;;6.40;3.00;;;10.30;99.90;;;;;;10431892;28;20647;-69
2022/12/25 07:39:36;;;;;;;4.47;2.43;;;10.30;99.90;;;;;;10407094;28;20233;-69
2022/12/25 07:44:36;;;;;;;4.17;2.30;;;10.30;99.90;;;;;;10431242;28;20233;-70
2022/12/25 07:49:37;;;;;;;5.10;2.40;;;10.30;99.90;;;;;;10425708;28;20223;-70
2022/12/25 07:54:37;;;;;;;6.30;2.70;;;10.40;99.90;;;;;;10431018;28;20221;-70
2022/12/25 07:59:38;;;;;;;7.27;3.60;;;10.60;99.90;;;;;;10431823;28;20218;-70
2022/12/25 08:04:40;;;;;;;5.43;2.73;;;10.70;99.90;;;;;;10425355;28;20787;-70
2022/12/25 08:09:41;;;;;;;5.67;3.27;;;10.90;99.90;;;;;;10414469;28;20448;-69
2022/12/25 08:14:42;;;;;;;5.60;3.17;;;11.10;99.90;;;;;;10433369;28;20806;-69
2022/12/25 08:19:42;;;;;;;5.00;3.07;;;11.30;99.90;;;;;;10418541;28;20230;-69
2022/12/25 08:24:43;;;;;;;5.17;3.57;;;11.40;99.90;;;;;;10429935;28;20229;-69
2022/12/25 08:29:45;;;;;;;5.73;4.00;;;11.50;99.90;;;;;;10426487;28;20259;-68
2022/12/25 08:34:45;;;;;;;5.13;3.20;;;11.30;99.90;;;;;;10414420;28;20223;-68
2022/12/25 08:39:46;;;;;;;7.37;3.53;;;11.20;99.90;;;;;;10429903;28;20631;-69
2022/12/25 08:44:46;;;;;;;8.57;4.17;;;11.10;99.90;;;;;;10426605;28;20237;-69
2022/12/25 08:49:47;;;;;;;6.60;3.47;;;11.00;99.90;;;;;;10427127;28;20237;-69
2022/12/25 08:54:47;;;;;;;5.77;3.57;;;10.90;99.90;;;;;;10417947;28;20278;-69
2022/12/25 08:59:48;;;;;;;6.73;4.33;;;10.90;99.90;;;;;;10423656;28;20215;-68
2022/12/25 09:04:48;;;;;;;8.17;4.97;;;11.10;99.90;;;;;;10417559;28;20889;-68
2022/12/25 09:09:49;;;;;;;8.20;4.20;;;11.10;99.90;;;;;;10439674;28;20206;-69
2022/12/25 09:14:50;;;;;;;7.23;3.47;;;11.00;99.90;;;;;;10441997;28;20305;-70
2022/12/25 09:19:50;;;;;;;6.17;3.23;;;10.90;99.90;;;;;;10443642;28;20226;-70
2022/12/25 09:24:51;;;;;;;6.77;3.10;;;10.90;99.90;;;;;;10434730;28;20364;-69
2022/12/25 09:29:51;;;;;;;5.10;2.80;;;10.80;99.90;;;;;;10437409;28;20780;-69
2022/12/25 09:34:52;;;;;;;7.80;3.10;;;10.80;99.90;;;;;;10432843;28;20287;-68
2022/12/25 09:39:52;;;;;;;7.00;3.27;;;10.80;99.90;;;;;;10433872;28;20231;-68
2022/12/25 09:45:01;;;;;;;7.03;3.40;;;11.00;99.90;;;;;;10414776;28;20233;-69
2022/12/25 09:50:06;;;;;;;4.90;3.07;;;11.10;99.90;;;;;;10414229;28;20227;-69
2022/12/25 09:55:21;;;;;;;8.53;3.70;;;11.30;99.90;;;;;;10433831;28;20281;-70
2022/12/25 10:00:26;;;;;;;7.23;3.50;;;11.40;99.90;;;;;;10419084;28;20300;-69
2022/12/25 10:05:50;;;;;;;7.80;3.80;;;11.40;99.90;;;;;;10427253;28;20240;-70
2022/12/25 10:10:54;;;;;;;11.07;4.03;;;11.40;99.90;;;;;;10445397;28;20227;-70
2022/12/25 10:16:03;;;;;;;7.07;3.40;;;11.50;99.90;;;;;;10431629;28;20223;-69
2022/12/25 10:21:07;;;;;;;6.90;4.00;;;11.50;99.90;;;;;;10430657;28;20234;-70
2022/12/25 10:26:17;;;;;;;6.80;3.27;;;11.60;99.90;;;;;;10415777;28;20252;-69
2022/12/25 10:31:20;;;;;;;6.00;3.30;;;11.90;99.90;;;;;;10428048;28;20223;-68
2022/12/25 10:36:23;;;;;;;6.27;3.23;;;12.10;99.90;;;;;;10434761;28;20646;-70
2022/12/25 10:41:36;;;;;;;6.43;3.47;;;12.10;99.90;;;;;;10426859;28;20263;-70
2022/12/25 10:46:37;;;;;;;6.27;3.03;;;12.30;99.90;;;;;;10428524;28;20591;-70
2022/12/25 10:51:38;;;;;;;7.00;3.20;;;12.90;99.90;;;;;;10438575;28;20236;-70
2022/12/25 10:56:39;;;;;;;7.07;3.63;;;13.50;99.90;;;;;;10433426;28;20225;-70
2022/12/25 11:01:39;;;;;;;6.63;4.20;;;13.70;99.90;;;;;;10418261;28;20325;-69
2022/12/25 11:06:41;;;;;;;12.07;4.30;;;13.50;99.90;;;;;;10431986;28;20222;-69
2022/12/25 11:11:46;;;;;;;5.07;2.97;;;13.10;99.90;;;;;;10434893;28;20231;-69
2022/12/25 11:16:49;;;;;;;5.47;2.70;;;12.80;99.90;;;;;;10429990;28;20237;-69
2022/12/25 11:21:53;;;;;;;6.17;3.20;;;12.30;99.90;;;;;;10439993;28;20321;-68
2022/12/25 11:27:00;;;;;;;5.47;3.40;;;12.00;99.90;;;;;;10428278;28;20301;-70
2022/12/25 11:32:02;;;;;;;9.40;4.87;;;11.80;99.90;;;;;;10428297;28;20250;-70
2022/12/25 11:37:11;;;;;;;7.17;3.90;;;11.80;99.90;;;;;;10429298;28;20228;-69
2022/12/25 11:42:26;;;;;;;9.97;4.57;;;11.80;99.90;;;;;;10426449;28;21294;-68
2022/12/25 11:47:35;;;;;;;9.97;4.60;;;11.80;99.90;;;;;;10432994;28;20622;-69
2022/12/25 11:52:39;;;;;;;5.93;3.73;;;11.90;99.90;;;;;;10425427;28;20226;-69
2022/12/25 11:57:41;;;;;;;6.20;3.73;;;12.10;99.90;;;;;;10438270;28;20249;-69
2022/12/25 12:02:53;;;;;;;6.20;4.20;;;12.20;99.90;;;;;;10407463;28;20255;-69
2022/12/25 12:08:00;;;;;;;7.70;4.50;;;12.40;99.90;;;;;;10428126;28;20222;-69
2022/12/25 12:13:19;;;;;;;7.03;3.93;;;12.30;99.90;;;;;;10439790;28;20220;-69
2022/12/25 12:18:25;;;;;;;6.20;4.40;;;12.10;99.90;;;;;;10430351;28;20219;-69
2022/12/25 12:23:29;;;;;;;6.27;4.07;;;12.00;99.90;;;;;;10431634;28;20919;-69
2022/12/25 12:28:43;;;;;;;6.03;4.10;;;12.20;99.90;;;;;;10429116;28;20233;-69
2022/12/25 12:33:51;;;;;;;9.43;4.77;;;12.50;99.90;;;;;;10437214;28;20257;-69
2022/12/25 12:38:54;;;;;;;9.90;4.27;;;12.80;99.90;;;;;;10434774;28;20217;-70
2022/12/25 12:44:02;;;;;;;6.57;4.93;;;13.20;99.90;;;;;;10435131;28;20765;-69
2022/12/25 12:49:31;;;;;;;7.43;3.73;;;13.50;99.90;;;;;;10428289;28;20231;-68
2022/12/25 12:54:31;;;;;;;6.50;3.73;;;13.70;99.90;;;;;;10420145;28;20226;-69
2022/12/25 12:59:45;;;;;;;5.10;3.33;;;13.80;99.90;;;;;;10439116;28;20232;-68
2022/12/25 13:04:59;;;;;;;3.90;3.00;;;13.80;99.90;;;;;;10436336;28;20241;-69
2022/12/25 13:10:11;;;;;;;4.53;3.17;;;13.80;99.90;;;;;;10434946;28;20242;-69
2022/12/25 13:15:13;;;;;;;5.70;2.77;;;13.60;99.90;;;;;;10431390;28;20219;-69
2022/12/25 13:20:22;;;;;;;5.40;2.93;;;13.30;99.90;;;;;;10445459;28;20286;-70
2022/12/25 13:25:23;;;;;;;6.87;3.00;;;13.20;99.90;;;;;;10444305;28;20220;-70
2022/12/25 13:30:24;;;;;;;6.27;3.27;;;13.20;99.90;;;;;;10436877;28;20230;-69
2022/12/25 13:35:26;;;;;;;7.27;3.27;;;13.10;99.90;;;;;;10437495;28;20281;-69
2022/12/25 13:40:27;;;;;;;4.43;2.83;;;13.10;99.90;;;;;;10427832;28;20296;-69
2022/12/25 13:45:29;;;;;;;4.77;3.13;;;13.20;99.90;;;;;;10410939;28;20225;-68
2022/12/25 13:50:32;;;;;;;4.60;2.87;;;13.10;99.90;;;;;;10410810;28;20872;-69
2022/12/25 13:55:33;;;;;;;5.60;3.37;;;13.10;99.90;;;;;;10441345;28;20228;-68
2022/12/25 14:00:42;;;;;;;6.43;3.03;;;13.10;99.90;;;;;;10427820;28;20721;-69
2022/12/25 14:05:43;;;;;;;6.37;3.20;;;13.00;99.90;;;;;;10430109;28;20236;-69
2022/12/25 14:10:48;;;;;;;4.67;3.40;;;12.90;99.90;;;;;;10415370;28;20591;-69
2022/12/25 14:15:49;;;;;;;5.80;3.20;;;12.80;99.90;;;;;;10445875;28;20246;-70
2022/12/25 14:21:14;;;;;;;3.77;2.83;;;12.80;99.90;;;;;;10432052;28;20901;-70
2022/12/25 14:26:20;;;;;;;4.93;3.00;;;12.80;99.90;;;;;;10433215;28;20681;-70
2022/12/25 14:31:23;;;;;;;6.07;3.30;;;12.80;99.90;;;;;;10427440;28;20890;-70
2022/12/25 14:36:24;;;;;;;5.27;2.90;;;12.80;99.90;;;;;;10434189;28;20225;-69
2022/12/25 14:41:36;;;;;;;4.33;2.83;;;12.70;99.90;;;;;;10429826;28;20300;-70
2022/12/25 14:46:37;;;;;;;3.33;2.63;;;12.60;99.90;;;;;;10427281;28;20218;-69
2022/12/25 14:51:38;;;;;;;5.80;3.27;;;12.40;99.90;;;;;;10431412;28;20229;-70
2022/12/25 14:56:45;;;;;;;5.33;3.40;;;12.30;99.90;;;;;;10445281;28;20261;-69
2022/12/25 15:01:51;;;;;;;4.77;3.13;;;12.20;99.90;;;;;;10431730;28;20595;-70
2022/12/25 15:06:59;;;;;;;3.70;2.90;;;12.10;99.90;;;;;;10426025;28;20307;-70
2022/12/25 15:12:01;;;;;;;4.20;2.97;;;12.00;99.90;;;;;;10429781;28;20260;-70
2022/12/25 15:17:01;;;;;;;5.80;3.17;;;11.90;99.90;;;;;;10436699;28;20230;-70
2022/12/25 15:22:02;;;;;;;5.90;3.60;;;11.80;99.90;;;;;;10429497;28;20226;-70
2022/12/25 15:27:04;;;;;;;6.03;3.50;;;11.70;99.90;;;;;;10416681;28;20707;-70
2022/12/25 15:32:04;;;;;;;4.37;3.33;;;11.70;99.90;;;;;;10409677;28;20222;-69
2022/12/25 15:37:05;;;;;;;4.80;3.37;;;11.70;99.90;;;;;;10417326;28;20219;-69
2022/12/25 15:42:21;;;;;;;4.17;3.53;;;11.60;99.90;;;;;;10411172;28;20308;-70
2022/12/25 15:47:21;;;;;;;5.80;3.33;;;11.60;99.90;;;;;;10406286;28;20221;-69
2022/12/25 15:52:22;;;;;;;3.53;2.70;;;11.60;99.90;;;;;;10424283;28;20256;-70
2022/12/25 15:57:23;;;;;;;4.77;3.27;;;11.70;99.90;;;;;;10431613;28;20316;-70
2022/12/25 16:02:23;;;;;;;4.50;3.00;;;11.70;99.90;;;;;;10412837;28;20713;-70
2022/12/25 16:07:24;;;;;;;3.63;2.73;;;11.80;99.90;;;;;;10424163;28;20206;-68
2022/12/25 16:12:25;;;;;;;4.50;3.00;;;11.80;99.90;;;;;;10416074;28;20221;-68
2022/12/25 16:17:26;;;;;;;5.60;3.30;;;11.90;99.90;;;;;;10414328;28;20763;-69
2022/12/25 16:22:27;;;;;;;4.43;3.13;;;11.90;99.90;;;;;;10419643;28;20222;-69
2022/12/25 16:27:27;;;;;;;5.00;3.13;;;11.90;99.90;;;;;;10404806;28;20226;-69
2022/12/25 16:32:28;;;;;;;7.07;3.13;;;11.80;99.90;;;;;;10414308;28;20233;-68
2022/12/25 16:37:28;;;;;;;3.37;2.70;;;11.90;99.90;;;;;;10421426;28;20220;-69
2022/12/25 16:42:29;;;;;;;4.87;2.80;;;12.00;99.90;;;;;;10423439;28;20230;-69
2022/12/25 16:47:30;;;;;;;4.47;2.90;;;12.00;99.90;;;;;;10431292;28;20640;-70
2022/12/25 16:52:33;;;;;;;4.30;2.80;;;12.10;99.90;;;;;;10423194;28;20226;-70
2022/12/25 16:57:34;;;;;;;3.30;2.57;;;12.10;99.90;;;;;;10412424;28;20245;-70
2022/12/25 17:02:34;;;;;;;3.90;2.77;;;12.20;99.90;;;;;;10423710;28;20717;-69
2022/12/25 17:07:36;;;;;;;6.80;2.77;;;12.20;99.90;;;;;;10446847;28;20221;-69
2022/12/25 17:12:37;;;;;;;3.90;2.70;;;12.30;99.90;;;;;;10428591;28;20275;-70
2022/12/25 17:17:37;;;;;;;5.40;3.13;;;12.30;99.90;;;;;;10420487;28;20292;-68
2022/12/25 17:22:38;;;;;;;3.67;2.90;;;12.30;99.90;;;;;;10437459;28;20227;-70
2022/12/25 17:27:38;;;;;;;4.97;3.30;;;12.20;99.90;;;;;;10436509;28;20217;-70
2022/12/25 17:32:39;;;;;;;3.87;3.17;;;12.10;99.90;;;;;;10437750;28;20221;-70
2022/12/25 17:37:39;;;;;;;4.73;3.53;;;12.10;99.90;;;;;;10438891;28;20309;-69
2022/12/25 17:42:40;;;;;;;5.03;3.27;;;12.00;99.90;;;;;;10428594;28;20258;-69
2022/12/25 17:47:40;;;;;;;7.20;3.80;;;11.90;99.90;;;;;;10435077;28;20689;-70
2022/12/25 17:52:41;;;;;;;5.13;4.00;;;11.90;99.90;;;;;;10430317;28;20239;-69
2022/12/25 17:57:41;;;;;;;4.63;3.63;;;12.00;99.90;;;;;;10434328;28;20219;-70
2022/12/25 18:02:45;;;;;;;5.90;3.70;;;12.10;99.90;;;;;;10437658;28;20229;-69
2022/12/25 18:07:47;;;;;;;6.77;4.10;;;12.10;99.90;;;;;;10433953;28;20218;-69
2022/12/25 18:12:47;;;;;;;7.70;3.63;;;12.00;99.90;;;;;;10430446;28;20220;-70
2022/12/25 18:17:48;;;;;;;6.10;4.10;;;12.00;99.90;;;;;;10433494;28;20231;-69
2022/12/25 18:22:48;;;;;;;7.57;3.90;;;12.00;99.90;;;;;;10420729;28;20217;-69
2022/12/25 18:27:50;;;;;;;5.57;4.00;;;11.90;99.90;;;;;;10432251;28;20243;-69
2022/12/25 18:32:50;;;;;;;6.70;4.43;;;12.00;99.90;;;;;;10448623;28;20244;-70
2022/12/25 18:37:51;;;;;;;7.73;4.20;;;12.10;99.90;;;;;;10435308;28;20221;-70
2022/12/25 18:42:52;;;;;;;7.33;4.43;;;12.10;99.90;;;;;;10436290;28;20608;-69
2022/12/25 18:47:52;;;;;;;8.20;4.10;;;12.10;99.90;;;;;;10429726;28;20270;-70
2022/12/25 18:52:53;;;;;;;5.33;3.83;;;12.10;99.90;;;;;;10434103;28;20234;-69
2022/12/25 18:57:54;;;;;;;5.27;4.57;;;12.10;99.90;;;;;;10430370;28;20257;-69
2022/12/25 19:02:59;;;;;;;6.20;4.20;;;12.10;99.90;;;;;;10437275;28;20223;-69
2022/12/25 19:08:00;;;;;;;6.20;4.63;;;12.10;99.90;;;;;;10437342;28;20708;-68
2022/12/25 19:13:00;;;;;;;6.73;4.50;;;12.20;99.90;;;;;;10429353;28;20210;-70
2022/12/25 19:18:01;;;;;;;6.03;4.63;;;12.20;99.90;;;;;;10428851;28;20621;-69
2022/12/25 19:23:02;;;;;;;6.30;4.77;;;12.20;99.90;;;;;;10429302;28;20226;-69
2022/12/25 19:28:02;;;;;;;7.50;5.07;;;12.10;99.90;;;;;;10418316;28;20277;-69
2022/12/25 19:33:05;;;;;;;7.53;5.33;;;12.20;99.90;;;;;;10429259;28;20707;-69
2022/12/25 19:38:06;;;;;;;7.17;5.47;;;12.20;99.90;;;;;;10426907;28;20576;-69
2022/12/25 19:43:06;;;;;;;8.70;5.70;;;12.10;99.90;;;;;;10436328;28;20226;-68
2022/12/25 19:48:07;;;;;;;7.30;5.70;;;12.10;99.90;;;;;;10429729;28;20239;-69
2022/12/25 19:53:07;;;;;;;8.40;5.53;;;12.10;99.90;;;;;;10409720;28;20344;-69
2022/12/25 19:58:08;;;;;;;8.70;5.50;;;12.10;99.90;;;;;;10429478;28;20756;-69
2022/12/25 20:03:09;;;;;;;9.17;5.90;;;12.00;99.90;;;;;;10430959;28;20287;-69
2022/12/25 20:08:09;;;;;;;9.80;6.40;;;12.10;99.90;;;;;;10429150;28;20221;-68
2022/12/25 20:13:10;;;;;;;7.80;5.70;;;12.00;99.90;;;;;;10407995;28;20603;-69
2022/12/25 20:18:11;;;;;;;8.93;5.87;;;12.00;99.90;;;;;;10428855;28;20222;-68
2022/12/25 20:23:12;;;;;;;10.20;5.57;;;11.90;99.90;;;;;;10390758;28;20341;-69
2022/12/25 20:28:13;;;;;;;7.60;5.47;;;11.90;99.90;;;;;;10429039;28;20217;-68
2022/12/25 20:33:13;;;;;;;9.03;5.60;;;11.90;99.90;;;;;;10438253;28;20230;-69
2022/12/25 20:38:14;;;;;;;7.60;5.13;;;11.90;99.90;;;;;;10424634;28;20226;-69
2022/12/25 20:43:15;;;;;;;8.07;5.67;;;11.90;99.90;;;;;;10410675;28;20315;-69
2022/12/25 20:48:15;;;;;;;7.13;5.30;;;11.80;99.90;;;;;;10409541;28;20278;-69
2022/12/25 20:53:17;;;;;;;6.40;5.57;;;11.90;99.90;;;;;;10438687;28;20215;-69
2022/12/25 20:58:17;;;;;;;8.30;5.50;;;11.90;99.90;;;;;;10439077;28;20876;-69
2022/12/25 21:03:18;;;;;;;7.37;5.17;;;11.90;99.90;;;;;;10438158;28;20321;-69
2022/12/25 21:08:21;;;;;;;8.53;5.60;;;11.80;99.90;;;;;;10437055;28;20218;-69
2022/12/25 21:13:23;;;;;;;6.07;4.97;;;11.80;99.90;;;;;;10413189;28;20591;-71
2022/12/25 21:18:25;;;;;;;6.53;5.23;;;11.90;99.90;;;;;;10437704;28;20231;-70
2022/12/25 21:23:27;;;;;;;6.33;5.30;;;11.80;99.90;;;;;;10415277;28;20227;-70
2022/12/25 21:28:29;;;;;;;6.77;4.57;;;11.80;99.90;;;;;;10437770;28;20283;-69
2022/12/25 21:38:55;;;;;;;6.53;4.30;;;11.90;99.90;;;;;;10434234;28;20228;-69
2022/12/25 21:43:56;;;;;;;7.50;4.60;;;11.90;99.90;;;;;;10446193;28;20230;-69
2022/12/25 21:48:59;;;;;;;7.73;4.10;;;11.90;99.90;;;;;;10432815;28;20230;-69
2022/12/25 21:54:00;;;;;;;5.43;4.10;;;12.00;99.90;;;;;;10432387;28;20741;-69
2022/12/25 21:59:02;;;;;;;4.97;4.20;;;12.00;99.90;;;;;;10431364;28;20252;-69
2022/12/25 22:04:05;;;;;;;5.93;4.20;;;12.00;99.90;;;;;;10435706;28;20467;-69
2022/12/25 22:09:09;;;;;;;5.03;3.90;;;12.00;99.90;;;;;;10431029;28;20727;-70
2022/12/25 22:19:41;;;;;;;6.63;4.40;;;12.10;99.90;;;;;;10438323;28;20214;-69
2022/12/25 22:24:42;;;;;;;5.67;3.90;;;12.10;99.90;;;;;;10429472;28;20712;-69
2022/12/25 22:29:45;;;;;;;5.77;3.70;;;12.10;99.90;;;;;;10432324;28;20210;-69
2022/12/25 22:34:45;;;;;;;8.07;4.07;;;12.10;99.90;;;;;;10433121;28;20268;-68
2022/12/25 22:39:46;;;;;;;5.50;3.60;;;12.10;99.90;;;;;;10436056;28;20259;-69
2022/12/25 22:44:46;;;;;;;5.60;3.77;;;12.10;99.90;;;;;;10429091;28;20217;-70
2022/12/25 22:49:47;;;;;;;4.70;3.87;;;12.10;99.90;;;;;;10436803;28;20253;-69
2022/12/25 22:54:48;;;;;;;4.73;3.93;;;12.10;99.90;;;;;;10431414;28;20220;-69
2022/12/25 22:59:51;;;;;;;4.73;4.23;;;12.20;99.90;;;;;;10428380;28;20950;-68
2022/12/25 23:04:55;;;;;;;4.97;3.43;;;12.20;99.90;;;;;;10430649;28;20599;-69
2022/12/25 23:09:55;;;;;;;5.80;3.87;;;12.30;99.90;;;;;;10428400;28;20299;-70
2022/12/25 23:14:56;;;;;;;4.03;3.60;;;12.30;99.90;;;;;;10432995;28;20297;-69
2022/12/25 23:30:37;;;;;;;4.57;3.30;;;12.20;99.90;;;;;;10425559;28;20246;-69
2022/12/25 23:35:37;;;;;;;6.63;3.37;;;12.20;99.90;;;;;;10431092;28;20255;-68
2022/12/25 23:40:38;;;;;;;5.90;3.27;;;12.20;99.90;;;;;;10413624;28;20256;-69
2022/12/25 23:45:38;;;;;;;5.80;3.00;;;12.10;99.90;;;;;;10425260;28;20225;-70
2022/12/25 23:50:39;;;;;;;5.43;2.97;;;12.10;99.90;;;;;;10422151;28;20236;-69
2022/12/25 23:55:41;;;;;;;5.57;3.30;;;12.10;99.90;;;;;;10433471;28;20246;-69
